sensor_id;sensor_type;location;lat;lon;timestamp;pressure;altitude;pressure_sealevel;temperature;humidity
33913;BME280;20200;52.084;5.224;2023-05-07T00:00:57;155867.0;;;28.16;37.39
33913;BME280;20200;52.084;5.224;2023-05-07T00:02:34;155968.0;;;28.55;36.74
33913;BME280;20200;52.084;5.224;2023-05-07T00:04:10;155954.0;;;28.5;36.81
33913;BME280;20200;52.084;5.224;2023-05-07T00:07:23;155912.0;;;28.33;36.89
33913;BME280;20200;52.084;5.224;2023-05-07T00:08:59;155914.0;;;28.34;37.06
33913;BME280;20200;52.084;5.224;2023-05-07T00:10:35;155885.0;;;28.22;37.32
33913;BME280;20200;52.084;5.224;2023-05-07T00:13:47;155896.0;;;28.27;37.28
33913;BME280;20200;52.084;5.224;2023-05-07T00:15:24;155854.0;;;28.1;37.4
33913;BME280;20200;52.084;5.224;2023-05-07T00:17:01;156025.0;;;28.78;36.37
33913;BME280;20200;52.084;5.224;2023-05-07T00:18:39;155998.0;;;28.67;36.43
33913;BME280;20200;52.084;5.224;2023-05-07T00:21:51;156044.0;;;28.85;36.15
33913;BME280;20200;52.084;5.224;2023-05-07T00:23:27;156013.0;;;28.73;36.36
33913;BME280;20200;52.084;5.224;2023-05-07T00:25:04;155946.0;;;28.47;36.76
33913;BME280;20200;52.084;5.224;2023-05-07T00:28:17;155901.0;;;28.29;37.12
33913;BME280;20200;52.084;5.224;2023-05-07T00:29:55;155900.0;;;28.28;37.28
33913;BME280;20200;52.084;5.224;2023-05-07T00:31:32;155897.0;;;28.27;37.17
33913;BME280;20200;52.084;5.224;2023-05-07T00:34:44;155986.0;;;28.62;36.61
33913;BME280;20200;52.084;5.224;2023-05-07T00:36:21;155971.0;;;28.56;36.74
33913;BME280;20200;52.084;5.224;2023-05-07T00:37:58;156045.0;;;28.86;36.06
33913;BME280;20200;52.084;5.224;2023-05-07T00:39:34;155967.0;;;28.55;36.67
33913;BME280;20200;52.084;5.224;2023-05-07T00:42:48;155894.0;;;28.26;37.08
33913;BME280;20200;52.084;5.224;2023-05-07T00:44:24;155978.0;;;28.59;36.5
33913;BME280;20200;52.084;5.224;2023-05-07T00:46:00;155914.0;;;28.34;36.83
33913;BME280;20200;52.084;5.224;2023-05-07T00:49:14;155885.0;;;28.23;36.99
33913;BME280;20200;52.084;5.224;2023-05-07T00:50:51;156016.0;;;28.74;36.12
33913;BME280;20200;52.084;5.224;2023-05-07T00:52:29;156020.0;;;28.76;35.96
33913;BME280;20200;52.084;5.224;2023-05-07T00:55:43;156035.0;;;28.82;35.99
33913;BME280;20200;52.084;5.224;2023-05-07T00:57:20;155970.0;;;28.56;36.33
33913;BME280;20200;52.084;5.224;2023-05-07T00:58:57;155995.0;;;28.66;36.21
33913;BME280;20200;52.084;5.224;2023-05-07T01:00:33;155949.0;;;28.48;36.46
33913;BME280;20200;52.084;5.224;2023-05-07T01:03:46;156010.0;;;28.72;36.11
33913;BME280;20200;52.084;5.224;2023-05-07T01:05:24;156003.0;;;28.69;36.1
33913;BME280;20200;52.084;5.224;2023-05-07T01:07:02;156023.0;;;28.77;35.85
33913;BME280;20200;52.084;5.224;2023-05-07T01:10:17;156051.0;;;28.88;35.81
33913;BME280;20200;52.084;5.224;2023-05-07T01:11:55;156029.0;;;28.79;35.9
33913;BME280;20200;52.084;5.224;2023-05-07T01:13:33;156025.0;;;28.78;35.85
33913;BME280;20200;52.084;5.224;2023-05-07T01:15:10;155994.0;;;28.66;36.06
33913;BME280;20200;52.084;5.224;2023-05-07T01:18:25;156033.0;;;28.81;35.71
33913;BME280;20200;52.084;5.224;2023-05-07T01:20:02;155994.0;;;28.65;35.92
33913;BME280;20200;52.084;5.224;2023-05-07T01:21:45;155969.0;;;28.55;36.24
33913;BME280;20200;52.084;5.224;2023-05-07T01:25:00;155921.0;;;28.37;36.49
33913;BME280;20200;52.084;5.224;2023-05-07T01:26:36;155925.0;;;28.38;36.71
33913;BME280;20200;52.084;5.224;2023-05-07T01:28:13;156025.0;;;28.78;36.03
33913;BME280;20200;52.084;5.224;2023-05-07T01:29:50;156023.0;;;28.77;36.07
33913;BME280;20200;52.084;5.224;2023-05-07T01:33:06;156017.0;;;28.75;36.06
33913;BME280;20200;52.084;5.224;2023-05-07T01:34:45;156120.0;;;29.15;35.42
33913;BME280;20200;52.084;5.224;2023-05-07T01:36:25;156023.0;;;28.77;35.74
33913;BME280;20200;52.084;5.224;2023-05-07T01:39:40;156155.0;;;29.29;35.11
33913;BME280;20200;52.084;5.224;2023-05-07T01:41:16;156089.0;;;29.03;35.57
33913;BME280;20200;52.084;5.224;2023-05-07T01:42:54;156119.0;;;29.15;35.65
33913;BME280;20200;52.084;5.224;2023-05-07T01:44:30;156033.0;;;28.81;36.37
33913;BME280;20200;52.084;5.224;2023-05-07T01:47:44;156006.0;;;28.7;36.71
33913;BME280;20200;52.084;5.224;2023-05-07T01:49:20;155996.0;;;28.66;36.78
33913;BME280;20200;52.084;5.224;2023-05-07T01:50:56;155983.0;;;28.61;36.99
33913;BME280;20200;52.084;5.224;2023-05-07T01:54:12;155956.0;;;28.5;37.31
33913;BME280;20200;52.084;5.224;2023-05-07T01:55:48;155947.0;;;28.47;37.33
33913;BME280;20200;52.084;5.224;2023-05-07T01:57:24;155980.0;;;28.6;37.18
33913;BME280;20200;52.084;5.224;2023-05-07T02:00:36;155972.0;;;28.57;37.22
33913;BME280;20200;52.084;5.224;2023-05-07T02:02:13;155960.0;;;28.52;37.35
33913;BME280;20200;52.084;5.224;2023-05-07T02:03:49;155954.0;;;28.5;37.39
33913;BME280;20200;52.084;5.224;2023-05-07T02:05:26;155869.0;;;28.16;37.99
33913;BME280;20200;52.084;5.224;2023-05-07T02:08:38;155864.0;;;28.14;38.0
33913;BME280;20200;52.084;5.224;2023-05-07T02:10:14;155843.0;;;28.06;38.1
33913;BME280;20200;52.084;5.224;2023-05-07T02:11:50;155927.0;;;28.39;37.43
33913;BME280;20200;52.084;5.224;2023-05-07T02:15:06;155976.0;;;28.58;37.12
33913;BME280;20200;52.084;5.224;2023-05-07T02:16:42;155962.0;;;28.53;37.24
33913;BME280;20200;52.084;5.224;2023-05-07T02:18:19;155964.0;;;28.54;37.26
33913;BME280;20200;52.084;5.224;2023-05-07T02:21:31;156053.0;;;28.89;36.6
33913;BME280;20200;52.084;5.224;2023-05-07T02:23:07;156006.0;;;28.7;36.92
33913;BME280;20200;52.084;5.224;2023-05-07T02:24:44;156053.0;;;28.89;36.5
33913;BME280;20200;52.084;5.224;2023-05-07T02:26:20;155983.0;;;28.61;36.89
33913;BME280;20200;52.084;5.224;2023-05-07T02:29:32;155916.0;;;28.35;37.31
33913;BME280;20200;52.084;5.224;2023-05-07T02:31:08;155897.0;;;28.27;37.62
33913;BME280;20200;52.084;5.224;2023-05-07T02:32:45;155863.0;;;28.14;37.74
33913;BME280;20200;52.084;5.224;2023-05-07T02:36:05;155847.0;;;28.07;37.86
33913;BME280;20200;52.084;5.224;2023-05-07T02:37:41;155927.0;;;28.39;37.26
33913;BME280;20200;52.084;5.224;2023-05-07T02:39:17;155869.0;;;28.16;37.54
33913;BME280;20200;52.084;5.224;2023-05-07T02:40:53;155932.0;;;28.41;37.17
33913;BME280;20200;52.084;5.224;2023-05-07T02:44:07;155963.0;;;28.53;36.85
33913;BME280;20200;52.084;5.224;2023-05-07T02:45:44;155910.0;;;28.32;37.1
33913;BME280;20200;52.084;5.224;2023-05-07T02:47:20;155918.0;;;28.36;37.08
33913;BME280;20200;52.084;5.224;2023-05-07T02:50:32;155890.0;;;28.24;37.19
33913;BME280;20200;52.084;5.224;2023-05-07T02:52:08;155874.0;;;28.18;37.17
33913;BME280;20200;52.084;5.224;2023-05-07T02:53:45;155912.0;;;28.33;37.04
33913;BME280;20200;52.084;5.224;2023-05-07T02:56:57;155856.0;;;28.11;37.24
33913;BME280;20200;52.084;5.224;2023-05-07T02:58:33;155843.0;;;28.06;37.43
33913;BME280;20200;52.084;5.224;2023-05-07T03:00:11;155883.0;;;28.22;37.22
33913;BME280;20200;52.084;5.224;2023-05-07T03:01:48;155807.0;;;27.92;38.03
33913;BME280;20200;52.084;5.224;2023-05-07T03:05:00;155825.0;;;27.99;37.64
33913;BME280;20200;52.084;5.224;2023-05-07T03:06:36;155853.0;;;28.1;37.42
33913;BME280;20200;52.084;5.224;2023-05-07T03:08:12;155840.0;;;28.05;37.67
33913;BME280;20200;52.084;5.224;2023-05-07T03:11:24;155860.0;;;28.13;37.39
33913;BME280;20200;52.084;5.224;2023-05-07T03:13:01;155832.0;;;28.02;37.42
33913;BME280;20200;52.084;5.224;2023-05-07T03:14:38;155748.0;;;27.69;38.14
33913;BME280;20200;52.084;5.224;2023-05-07T03:17:51;155764.0;;;27.75;38.0
33913;BME280;20200;52.084;5.224;2023-05-07T03:19:27;155733.0;;;27.63;37.99
33913;BME280;20200;52.084;5.224;2023-05-07T03:21:03;155657.0;;;27.33;38.6
33913;BME280;20200;52.084;5.224;2023-05-07T03:24:16;155710.0;;;27.53;38.19
33913;BME280;20200;52.084;5.224;2023-05-07T03:25:53;155750.0;;;27.69;37.81
33913;BME280;20200;52.084;5.224;2023-05-07T03:27:29;155780.0;;;27.81;37.39
33913;BME280;20200;52.084;5.224;2023-05-07T03:29:05;155760.0;;;27.73;37.65
33913;BME280;20200;52.084;5.224;2023-05-07T03:32:17;155756.0;;;27.72;37.72
33913;BME280;20200;52.084;5.224;2023-05-07T03:33:55;155737.0;;;27.64;37.74
33913;BME280;20200;52.084;5.224;2023-05-07T03:35:31;155677.0;;;27.4;38.12
33913;BME280;20200;52.084;5.224;2023-05-07T03:38:45;155672.0;;;27.38;38.11
33913;BME280;20200;52.084;5.224;2023-05-07T03:40:21;155763.0;;;27.74;37.49
33913;BME280;20200;52.084;5.224;2023-05-07T03:41:58;155727.0;;;27.6;37.72
33913;BME280;20200;52.084;5.224;2023-05-07T03:45:11;155688.0;;;27.45;38.14
33913;BME280;20200;52.084;5.224;2023-05-07T03:46:47;155770.0;;;27.77;37.61
33913;BME280;20200;52.084;5.224;2023-05-07T03:48:23;155751.0;;;27.7;37.69
33913;BME280;20200;52.084;5.224;2023-05-07T03:49:59;155721.0;;;27.58;38.0
33913;BME280;20200;52.084;5.224;2023-05-07T03:53:12;155776.0;;;27.8;37.58
33913;BME280;20200;52.084;5.224;2023-05-07T03:54:48;155744.0;;;27.67;37.92
33913;BME280;20200;52.084;5.224;2023-05-07T03:56:24;155691.0;;;27.46;38.26
33913;BME280;20200;52.084;5.224;2023-05-07T03:59:37;155827.0;;;28.0;37.29
33913;BME280;20200;52.084;5.224;2023-05-07T04:01:13;155754.0;;;27.71;37.83
33913;BME280;20200;52.084;5.224;2023-05-07T04:02:49;155684.0;;;27.43;38.28
33913;BME280;20200;52.084;5.224;2023-05-07T04:06:01;155688.0;;;27.45;38.31
33913;BME280;20200;52.084;5.224;2023-05-07T04:07:38;155695.0;;;27.48;38.29
33913;BME280;20200;52.084;5.224;2023-05-07T04:09:14;155765.0;;;27.75;37.76
33913;BME280;20200;52.084;5.224;2023-05-07T04:10:54;155825.0;;;27.99;37.44
33913;BME280;20200;52.084;5.224;2023-05-07T04:14:07;155777.0;;;27.8;37.71
33913;BME280;20200;52.084;5.224;2023-05-07T04:15:43;155740.0;;;27.65;38.12
33913;BME280;20200;52.084;5.224;2023-05-07T04:17:19;155805.0;;;27.91;37.64
33913;BME280;20200;52.084;5.224;2023-05-07T04:20:34;155772.0;;;27.78;37.74
33913;BME280;20200;52.084;5.224;2023-05-07T04:22:10;155774.0;;;27.79;37.85
33913;BME280;20200;52.084;5.224;2023-05-07T04:23:48;155871.0;;;28.17;37.22
33913;BME280;20200;52.084;5.224;2023-05-07T04:27:01;155834.0;;;28.02;37.57
33913;BME280;20200;52.084;5.224;2023-05-07T04:28:37;155771.0;;;27.78;38.03
33913;BME280;20200;52.084;5.224;2023-05-07T04:30:14;155834.0;;;28.03;37.49
33913;BME280;20200;52.084;5.224;2023-05-07T04:31:50;155789.0;;;27.84;37.81
33913;BME280;20200;52.084;5.224;2023-05-07T04:35:03;155799.0;;;27.89;37.78
33913;BME280;20200;52.084;5.224;2023-05-07T04:36:40;155865.0;;;28.15;37.44
33913;BME280;20200;52.084;5.224;2023-05-07T04:38:17;155734.0;;;27.63;38.37
33913;BME280;20200;52.084;5.224;2023-05-07T04:41:29;155756.0;;;27.72;38.15
33913;BME280;20200;52.084;5.224;2023-05-07T04:43:05;155795.0;;;27.87;37.96
33913;BME280;20200;52.084;5.224;2023-05-07T04:44:43;155876.0;;;28.19;37.26
33913;BME280;20200;52.084;5.224;2023-05-07T04:47:56;155817.0;;;27.96;37.79
33913;BME280;20200;52.084;5.224;2023-05-07T04:49:32;155836.0;;;28.03;37.67
33913;BME280;20200;52.084;5.224;2023-05-07T04:51:08;155845.0;;;28.07;37.58
33913;BME280;20200;52.084;5.224;2023-05-07T04:52:44;155809.0;;;27.93;37.79
33913;BME280;20200;52.084;5.224;2023-05-07T04:55:57;155889.0;;;28.24;37.36
33913;BME280;20200;52.084;5.224;2023-05-07T04:57:33;155911.0;;;28.33;37.21
33913;BME280;20200;52.084;5.224;2023-05-07T04:59:10;155980.0;;;28.6;36.85
33913;BME280;20200;52.084;5.224;2023-05-07T05:02:22;155944.0;;;28.46;37.08
33913;BME280;20200;52.084;5.224;2023-05-07T05:03:58;155934.0;;;28.42;37.17
33913;BME280;20200;52.084;5.224;2023-05-07T05:05:34;155911.0;;;28.33;37.31
33913;BME280;20200;52.084;5.224;2023-05-07T05:08:46;155874.0;;;28.18;37.67
33913;BME280;20200;52.084;5.224;2023-05-07T05:10:22;155877.0;;;28.19;37.56
33913;BME280;20200;52.084;5.224;2023-05-07T05:11:59;155809.0;;;27.92;37.92
33913;BME280;20200;52.084;5.224;2023-05-07T05:15:12;155904.0;;;28.3;37.47
33913;BME280;20200;52.084;5.224;2023-05-07T05:16:48;155833.0;;;28.02;37.79
33913;BME280;20200;52.084;5.224;2023-05-07T05:18:24;155880.0;;;28.21;37.67
33913;BME280;20200;52.084;5.224;2023-05-07T05:20:00;155812.0;;;27.94;37.99
33913;BME280;20200;52.084;5.224;2023-05-07T05:23:13;155767.0;;;27.76;38.39
33913;BME280;20200;52.084;5.224;2023-05-07T05:24:49;155887.0;;;28.23;37.42
33913;BME280;20200;52.084;5.224;2023-05-07T05:26:25;155849.0;;;28.08;37.71
33913;BME280;20200;52.084;5.224;2023-05-07T05:29:37;155876.0;;;28.19;37.56
33913;BME280;20200;52.084;5.224;2023-05-07T05:31:13;155864.0;;;28.14;37.72
33913;BME280;20200;52.084;5.224;2023-05-07T05:32:50;155897.0;;;28.27;37.61
33913;BME280;20200;52.084;5.224;2023-05-07T05:36:02;155847.0;;;28.08;37.86
33913;BME280;20200;52.084;5.224;2023-05-07T05:37:39;155776.0;;;27.79;38.58
33913;BME280;20200;52.084;5.224;2023-05-07T05:39:15;155763.0;;;27.75;38.71
33913;BME280;20200;52.084;5.224;2023-05-07T05:40:53;155825.0;;;27.99;38.21
33913;BME280;20200;52.084;5.224;2023-05-07T05:44:06;155940.0;;;28.44;37.51
33913;BME280;20200;52.084;5.224;2023-05-07T05:45:42;155935.0;;;28.42;37.46
33913;BME280;20200;52.084;5.224;2023-05-07T05:47:18;155933.0;;;28.42;37.44
33913;BME280;20200;52.084;5.224;2023-05-07T05:50:30;155925.0;;;28.38;37.43
33913;BME280;20200;52.084;5.224;2023-05-07T05:52:06;155888.0;;;28.24;37.75
33913;BME280;20200;52.084;5.224;2023-05-07T05:53:43;155922.0;;;28.37;37.31
33913;BME280;20200;52.084;5.224;2023-05-07T05:56:56;155830.0;;;28.01;38.14
33913;BME280;20200;52.084;5.224;2023-05-07T05:58:33;155818.0;;;27.96;38.18
33913;BME280;20200;52.084;5.224;2023-05-07T06:00:10;155859.0;;;28.12;37.97
33913;BME280;20200;52.084;5.224;2023-05-07T06:01:46;155905.0;;;28.3;37.64
33913;BME280;20200;52.084;5.224;2023-05-07T06:04:58;155807.0;;;27.92;38.39
33913;BME280;20200;52.084;5.224;2023-05-07T06:06:35;155815.0;;;27.95;38.54
33913;BME280;20200;52.084;5.224;2023-05-07T06:08:11;155836.0;;;28.03;38.44
33913;BME280;20200;52.084;5.224;2023-05-07T06:11:23;155789.0;;;27.85;38.62
33913;BME280;20200;52.084;5.224;2023-05-07T06:12:59;155847.0;;;28.08;38.39
33913;BME280;20200;52.084;5.224;2023-05-07T06:14:35;155786.0;;;27.83;38.78
33913;BME280;20200;52.084;5.224;2023-05-07T06:17:48;155809.0;;;27.92;38.71
33913;BME280;20200;52.084;5.224;2023-05-07T06:19:25;155832.0;;;28.02;38.76
33913;BME280;20200;52.084;5.224;2023-05-07T06:21:01;155768.0;;;27.76;39.18
33913;BME280;20200;52.084;5.224;2023-05-07T06:22:38;155718.0;;;27.57;38.74
33913;BME280;20200;52.084;5.224;2023-05-07T06:25:51;155819.0;;;27.97;38.71
33913;BME280;20200;52.084;5.224;2023-05-07T06:32:16;155915.0;;;28.34;38.58
33913;BME280;20200;52.084;5.224;2023-05-07T06:33:54;155929.0;;;28.4;38.53
33913;BME280;20200;52.084;5.224;2023-05-07T06:35:31;155964.0;;;28.54;38.31
33913;BME280;20200;52.084;5.224;2023-05-07T06:38:43;156027.0;;;28.79;37.75
33913;BME280;20200;52.084;5.224;2023-05-07T06:40:19;156030.0;;;28.8;37.64
33913;BME280;20200;52.084;5.224;2023-05-07T06:41:55;156043.0;;;28.85;37.81
33913;BME280;20200;52.084;5.224;2023-05-07T06:45:09;156121.0;;;29.16;37.14
33913;BME280;20200;52.084;5.224;2023-05-07T06:46:45;156124.0;;;29.17;36.78
33913;BME280;20200;52.084;5.224;2023-05-07T06:48:22;156084.0;;;29.01;36.85
33913;BME280;20200;52.084;5.224;2023-05-07T06:49:58;156126.0;;;29.17;37.11
33913;BME280;20200;52.084;5.224;2023-05-07T06:53:10;156078.0;;;28.98;37.35
33913;BME280;20200;52.084;5.224;2023-05-07T06:54:46;156084.0;;;29.01;37.37
33913;BME280;20200;52.084;5.224;2023-05-07T06:56:22;156086.0;;;29.02;37.64
33913;BME280;20200;52.084;5.224;2023-05-07T06:59:36;156062.0;;;28.92;37.46
33913;BME280;20200;52.084;5.224;2023-05-07T07:01:12;156096.0;;;29.06;37.4
33913;BME280;20200;52.084;5.224;2023-05-07T07:02:48;156271.0;;;29.75;36.08
33913;BME280;20200;52.084;5.224;2023-05-07T07:06:00;156169.0;;;29.35;36.87
33913;BME280;20200;52.084;5.224;2023-05-07T07:07:36;156159.0;;;29.31;36.79
33913;BME280;20200;52.084;5.224;2023-05-07T07:09:12;156317.0;;;29.93;35.96
33913;BME280;20200;52.084;5.224;2023-05-07T07:10:49;156570.0;;;30.92;34.35
33913;BME280;20200;52.084;5.224;2023-05-07T07:14:01;156457.0;;;30.48;35.21
33913;BME280;20200;52.084;5.224;2023-05-07T07:15:37;156409.0;;;30.29;35.51
33913;BME280;20200;52.084;5.224;2023-05-07T07:17:13;156270.0;;;29.74;36.53
33913;BME280;20200;52.084;5.224;2023-05-07T07:20:27;156193.0;;;29.44;37.01
33913;BME280;20200;52.084;5.224;2023-05-07T07:22:03;156279.0;;;29.78;36.28
33913;BME280;20200;52.084;5.224;2023-05-07T07:23:39;156319.0;;;29.94;36.1
33913;BME280;20200;52.084;5.224;2023-05-07T07:26:52;156353.0;;;30.07;35.74
33913;BME280;20200;52.084;5.224;2023-05-07T07:28:28;156258.0;;;29.69;36.78
33913;BME280;20200;52.084;5.224;2023-05-07T07:30:06;156217.0;;;29.53;37.08
33913;BME280;20200;52.084;5.224;2023-05-07T07:31:43;156174.0;;;29.36;37.17
33913;BME280;20200;52.084;5.224;2023-05-07T07:34:55;156134.0;;;29.21;37.56
33913;BME280;20200;52.084;5.224;2023-05-07T07:36:31;156207.0;;;29.49;36.86
33913;BME280;20200;52.084;5.224;2023-05-07T07:38:07;156184.0;;;29.4;37.28
33913;BME280;20200;52.084;5.224;2023-05-07T07:41:20;156105.0;;;29.09;37.78
33913;BME280;20200;52.084;5.224;2023-05-07T07:42:56;156236.0;;;29.61;37.01
33913;BME280;20200;52.084;5.224;2023-05-07T07:44:33;156222.0;;;29.55;37.26
33913;BME280;20200;52.084;5.224;2023-05-07T07:47:48;156299.0;;;29.86;36.56
33913;BME280;20200;52.084;5.224;2023-05-07T07:49:24;156222.0;;;29.55;37.18
33913;BME280;20200;52.084;5.224;2023-05-07T07:51:00;156153.0;;;29.28;37.67
33913;BME280;20200;52.084;5.224;2023-05-07T07:52:37;156211.0;;;29.51;37.42
33913;BME280;20200;52.084;5.224;2023-05-07T07:55:50;156126.0;;;29.18;38.26
33913;BME280;20200;52.084;5.224;2023-05-07T07:57:26;156113.0;;;29.13;37.79
33913;BME280;20200;52.084;5.224;2023-05-07T07:59:03;156409.0;;;30.29;36.26
33913;BME280;20200;52.084;5.224;2023-05-07T08:02:15;156509.0;;;30.68;35.49
33913;BME280;20200;52.084;5.224;2023-05-07T08:03:52;156551.0;;;30.85;35.12
33913;BME280;20200;52.084;5.224;2023-05-07T08:05:29;156550.0;;;30.85;35.12
33913;BME280;20200;52.084;5.224;2023-05-07T08:08:42;156474.0;;;30.54;35.82
33913;BME280;20200;52.084;5.224;2023-05-07T08:10:19;156509.0;;;30.68;35.76
33913;BME280;20200;52.084;5.224;2023-05-07T08:11:56;156369.0;;;30.13;37.32
33913;BME280;20200;52.084;5.224;2023-05-07T08:13:34;156327.0;;;29.97;37.5
33913;BME280;20200;52.084;5.224;2023-05-07T08:16:47;156373.0;;;30.15;36.94
33913;BME280;20200;52.084;5.224;2023-05-07T08:18:23;156235.0;;;29.6;37.4
33913;BME280;20200;52.084;5.224;2023-05-07T08:20:01;156283.0;;;29.79;37.42
33913;BME280;20200;52.084;5.224;2023-05-07T08:23:15;156286.0;;;29.81;37.26
33913;BME280;20200;52.084;5.224;2023-05-07T08:24:51;156336.0;;;30.0;37.15
33913;BME280;20200;52.084;5.224;2023-05-07T08:26:27;156456.0;;;30.47;36.29
33913;BME280;20200;52.084;5.224;2023-05-07T08:29:41;156320.0;;;29.94;36.97
33913;BME280;20200;52.084;5.224;2023-05-07T08:31:17;156291.0;;;29.82;37.21
33913;BME280;20200;52.084;5.224;2023-05-07T08:32:53;156362.0;;;30.1;36.64
33913;BME280;20200;52.084;5.224;2023-05-07T08:34:29;156409.0;;;30.29;36.43
33913;BME280;20200;52.084;5.224;2023-05-07T08:37:42;156293.0;;;29.83;37.21
33913;BME280;20200;52.084;5.224;2023-05-07T08:39:19;156358.0;;;30.09;36.82
33913;BME280;20200;52.084;5.224;2023-05-07T08:40:55;156475.0;;;30.55;36.44
33913;BME280;20200;52.084;5.224;2023-05-07T08:44:12;156244.0;;;29.64;37.57
33913;BME280;20200;52.084;5.224;2023-05-07T08:45:52;156376.0;;;30.16;36.49
33913;BME280;20200;52.084;5.224;2023-05-07T08:47:34;156453.0;;;30.46;37.14
33913;BME280;20200;52.084;5.224;2023-05-07T08:49:15;156431.0;;;30.37;36.78
33913;BME280;20200;52.084;5.224;2023-05-07T08:52:29;156445.0;;;30.43;36.82
33913;BME280;20200;52.084;5.224;2023-05-07T08:54:05;156528.0;;;30.76;36.33
33913;BME280;20200;52.084;5.224;2023-05-07T08:55:44;156509.0;;;30.68;36.43
33913;BME280;20200;52.084;5.224;2023-05-07T08:58:58;156512.0;;;30.7;36.36
33913;BME280;20200;52.084;5.224;2023-05-07T09:00:36;156621.0;;;31.13;36.35
33913;BME280;20200;52.084;5.224;2023-05-07T09:02:13;156671.0;;;31.32;36.08
33913;BME280;20200;52.084;5.224;2023-05-07T09:03:49;156585.0;;;30.98;36.42
33913;BME280;20200;52.084;5.224;2023-05-07T09:07:04;156637.0;;;31.19;36.35
33913;BME280;20200;52.084;5.224;2023-05-07T09:08:40;156540.0;;;30.81;36.28
33913;BME280;20200;52.084;5.224;2023-05-07T09:10:25;156664.0;;;31.29;35.19
33913;BME280;20200;52.084;5.224;2023-05-07T09:13:39;156553.0;;;30.86;36.31
33913;BME280;20200;52.084;5.224;2023-05-07T09:15:15;156586.0;;;30.99;36.28
33913;BME280;20200;52.084;5.224;2023-05-07T09:16:52;156659.0;;;31.27;35.89
33913;BME280;20200;52.084;5.224;2023-05-07T09:18:28;156619.0;;;31.11;36.06
33913;BME280;20200;52.084;5.224;2023-05-07T09:21:42;156615.0;;;31.1;36.08
33913;BME280;20200;52.084;5.224;2023-05-07T09:23:20;156657.0;;;31.27;35.53
33913;BME280;20200;52.084;5.224;2023-05-07T09:24:57;156732.0;;;31.56;34.85
33913;BME280;20200;52.084;5.224;2023-05-07T09:28:10;156648.0;;;31.23;35.18
33913;BME280;20200;52.084;5.224;2023-05-07T09:29:46;156742.0;;;31.6;35.65
33913;BME280;20200;52.084;5.224;2023-05-07T09:31:23;156782.0;;;31.76;35.07
33913;BME280;20200;52.084;5.224;2023-05-07T09:34:41;156692.0;;;31.41;35.83
33913;BME280;20200;52.084;5.224;2023-05-07T09:36:18;156824.0;;;31.92;34.76
33913;BME280;20200;52.084;5.224;2023-05-07T09:37:55;156882.0;;;32.15;34.39
33913;BME280;20200;52.084;5.224;2023-05-07T09:39:41;156976.0;;;32.53;33.44
33913;BME280;20200;52.084;5.224;2023-05-07T09:42:55;156952.0;;;32.43;33.71
33913;BME280;20200;52.084;5.224;2023-05-07T09:44:33;157016.0;;;32.68;32.81
33913;BME280;20200;52.084;5.224;2023-05-07T09:46:12;156992.0;;;32.58;33.51
33913;BME280;20200;52.084;5.224;2023-05-07T09:47:54;156846.0;;;32.01;33.12
33913;BME280;20200;52.084;5.224;2023-05-07T09:51:17;156998.0;;;32.61;33.08
33913;BME280;20200;52.084;5.224;2023-05-07T09:53:05;156872.0;;;32.11;34.11
33913;BME280;20200;52.084;5.224;2023-05-07T09:54:45;156870.0;;;32.1;34.21
33913;BME280;20200;52.084;5.224;2023-05-07T09:56:22;156900.0;;;32.22;33.86
33913;BME280;20200;52.084;5.224;2023-05-07T09:59:42;157031.0;;;32.74;32.47
33913;BME280;20200;52.084;5.224;2023-05-07T10:01:19;157020.0;;;32.69;32.54
33913;BME280;20200;52.084;5.224;2023-05-07T10:02:58;157045.0;;;32.79;32.17
33913;BME280;20200;52.084;5.224;2023-05-07T10:04:35;156929.0;;;32.35;31.9
33913;BME280;20200;52.084;5.224;2023-05-07T10:07:51;157081.0;;;32.93;30.78
33913;BME280;20200;52.084;5.224;2023-05-07T10:09:29;157061.0;;;32.86;31.32
33913;BME280;20200;52.084;5.224;2023-05-07T10:11:06;157040.0;;;32.78;32.12
33913;BME280;20200;52.084;5.224;2023-05-07T10:14:20;157057.0;;;32.85;31.93
33913;BME280;20200;52.084;5.224;2023-05-07T10:15:57;157218.0;;;33.47;30.72
33913;BME280;20200;52.084;5.224;2023-05-07T10:17:35;157151.0;;;33.21;31.38
33913;BME280;20200;52.084;5.224;2023-05-07T10:19:12;157139.0;;;33.17;32.04
33913;BME280;20200;52.084;5.224;2023-05-07T10:22:29;157198.0;;;33.39;32.14
33913;BME280;20200;52.084;5.224;2023-05-07T10:24:17;157218.0;;;33.47;30.67
33913;BME280;20200;52.084;5.224;2023-05-07T10:25:56;157158.0;;;33.24;30.64
33913;BME280;20200;52.084;5.224;2023-05-07T10:27:33;157354.0;;;34.01;29.22
33913;BME280;20200;52.084;5.224;2023-05-07T10:31:10;157397.0;;;34.17;29.43
33913;BME280;20200;52.084;5.224;2023-05-07T10:33:03;157261.0;;;33.64;29.77
33913;BME280;20200;52.084;5.224;2023-05-07T10:34:43;157260.0;;;33.64;30.07
33913;BME280;20200;52.084;5.224;2023-05-07T10:36:21;157314.0;;;33.85;30.11
33913;BME280;20200;52.084;5.224;2023-05-07T10:37:59;157323.0;;;33.89;29.46
33913;BME280;20200;52.084;5.224;2023-05-07T10:41:12;157353.0;;;34.0;30.11
33913;BME280;20200;52.084;5.224;2023-05-07T10:42:54;157360.0;;;34.03;29.0
33913;BME280;20200;52.084;5.224;2023-05-07T10:44:30;157378.0;;;34.1;29.88
33913;BME280;20200;52.084;5.224;2023-05-07T10:48:06;157366.0;;;34.05;29.26
33913;BME280;20200;52.084;5.224;2023-05-07T10:51:18;157354.0;;;34.01;29.07
33913;BME280;20200;52.084;5.224;2023-05-07T10:53:27;157448.0;;;34.37;28.67
33913;BME280;20200;52.084;5.224;2023-05-07T10:55:33;157385.0;;;34.14;28.94
33913;BME280;20200;52.084;5.224;2023-05-07T10:57:41;157481.0;;;34.51;27.99
33913;BME280;20200;52.084;5.224;2023-05-07T10:59:31;157516.0;;;34.64;28.07
33913;BME280;20200;52.084;5.224;2023-05-07T11:01:11;157546.0;;;34.76;28.16
33913;BME280;20200;52.084;5.224;2023-05-07T11:05:19;157390.0;;;34.15;28.88
33913;BME280;20200;52.084;5.224;2023-05-07T11:07:25;157566.0;;;34.85;27.3
33913;BME280;20200;52.084;5.224;2023-05-07T11:09:06;157504.0;;;34.6;28.53
33913;BME280;20200;52.084;5.224;2023-05-07T11:10:57;157496.0;;;34.57;28.49
33913;BME280;20200;52.084;5.224;2023-05-07T11:13:07;157592.0;;;34.94;28.67